createdAt,value
2022-08-03T00:02:20.093Z,19.30
2022-08-03T00:04:48.683Z,19.30
2022-08-03T00:07:16.991Z,19.00
2022-08-03T00:09:45.358Z,19.10
2022-08-03T00:12:13.830Z,19.10
2022-08-03T00:14:42.062Z,19.30
2022-08-03T00:17:11.517Z,19.30
2022-08-03T00:19:39.651Z,19.30
2022-08-03T00:22:07.761Z,19.10
2022-08-03T00:24:36.414Z,18.90
2022-08-03T00:27:04.536Z,18.50
2022-08-03T00:29:32.581Z,18.40
2022-08-03T00:32:00.782Z,18.50
2022-08-03T00:34:36.616Z,18.60
2022-08-03T00:37:19.925Z,18.80
2022-08-03T00:39:48.132Z,18.70
2022-08-03T00:42:16.987Z,18.90
2022-08-03T00:44:46.148Z,18.90
2022-08-03T00:47:14.277Z,19.00
2022-08-03T00:49:44.048Z,19.00
2022-08-03T00:52:14.609Z,19.00
2022-08-03T00:54:42.737Z,19.00
2022-08-03T00:57:10.837Z,18.80
2022-08-03T00:59:39.724Z,18.70
2022-08-03T01:02:07.867Z,18.50
2022-08-03T01:04:35.914Z,18.60
2022-08-03T01:07:12.909Z,18.70
2022-08-03T01:09:53.716Z,18.50
2022-08-03T01:12:30.103Z,18.60
2022-08-03T01:15:08.700Z,18.70
2022-08-03T01:17:45.035Z,18.60
2022-08-03T01:20:18.504Z,18.50
2022-08-03T01:23:16.275Z,18.60
2022-08-03T01:26:04.567Z,18.40
2022-08-03T01:28:57.711Z,18.20
2022-08-03T01:31:31.092Z,18.10
2022-08-03T01:34:03.623Z,18.10
2022-08-03T01:36:40.546Z,18.30
2022-08-03T01:39:11.516Z,18.50
2022-08-03T01:41:47.689Z,18.60
2022-08-03T01:44:29.001Z,18.60
2022-08-03T01:47:01.956Z,18.40
2022-08-03T01:49:33.073Z,18.00
2022-08-03T01:52:04.852Z,17.80
2022-08-03T01:54:36.728Z,17.40
2022-08-03T01:57:05.830Z,17.30
2022-08-03T01:59:36.739Z,17.70
2022-08-03T02:02:28.473Z,18.00
2022-08-03T02:04:58.052Z,18.10
2022-08-03T02:07:27.149Z,18.20
2022-08-03T02:09:56.859Z,18.20
2022-08-03T02:12:27.366Z,18.30
2022-08-03T02:14:57.516Z,18.40
2022-08-03T02:17:39.386Z,18.10
2022-08-03T02:20:10.146Z,17.60
2022-08-03T02:22:41.606Z,17.10
2022-08-03T02:25:10.954Z,16.90
2022-08-03T02:27:49.900Z,16.90
2022-08-03T02:30:18.111Z,17.10
2022-08-03T02:32:59.056Z,17.00
2022-08-03T02:35:29.282Z,17.00
2022-08-03T02:38:02.131Z,17.00
2022-08-03T02:40:31.487Z,16.90
2022-08-03T02:43:01.763Z,16.90
2022-08-03T02:45:30.717Z,16.80
2022-08-03T02:48:04.072Z,17.00
2022-08-03T02:50:34.555Z,17.00
2022-08-03T02:53:04.204Z,17.00
2022-08-03T02:55:35.976Z,17.40
2022-08-03T02:58:13.575Z,17.20
2022-08-03T03:00:42.374Z,16.90
2022-08-03T03:03:12.605Z,16.60
2022-08-03T03:05:56.153Z,16.60
2022-08-03T03:08:28.616Z,16.50
2022-08-03T03:10:57.952Z,16.70
2022-08-03T03:13:26.522Z,16.60
2022-08-03T03:15:57.670Z,16.90
2022-08-03T03:18:29.448Z,16.90
2022-08-03T03:20:59.083Z,17.10
2022-08-03T03:23:28.911Z,16.60
2022-08-03T03:25:58.593Z,16.70
2022-08-03T03:28:26.894Z,17.00
2022-08-03T03:30:55.058Z,17.40
2022-08-03T03:33:23.992Z,17.50
2022-08-03T03:35:53.903Z,17.30
2022-08-03T03:38:22.230Z,17.10
2022-08-03T03:40:50.483Z,17.00
2022-08-03T03:43:19.567Z,16.90
2022-08-03T03:45:49.019Z,17.10
2022-08-03T03:48:17.230Z,17.30
2022-08-03T03:50:46.341Z,17.30
2022-08-03T03:53:16.743Z,17.30
2022-08-03T03:55:59.332Z,17.50
2022-08-03T03:58:31.960Z,17.50
2022-08-03T04:01:00.263Z,17.60
2022-08-03T04:03:28.579Z,17.70
2022-08-03T04:06:14.153Z,17.60
2022-08-03T04:09:09.567Z,17.90
2022-08-03T04:11:41.618Z,17.40
2022-08-03T04:14:13.116Z,17.50
2022-08-03T04:16:46.108Z,17.70
2022-08-03T04:19:23.118Z,17.70
2022-08-03T04:21:57.136Z,17.70
2022-08-03T04:24:31.565Z,17.90
2022-08-03T04:27:01.957Z,18.10
2022-08-03T04:29:31.980Z,18.30
2022-08-03T04:32:03.120Z,18.40
2022-08-03T04:34:31.727Z,18.50
2022-08-03T04:37:01.926Z,18.50
2022-08-03T04:39:33.348Z,18.70
2022-08-03T04:42:08.052Z,18.80
2022-08-03T04:44:39.548Z,18.90
2022-08-03T04:47:07.912Z,18.90
2022-08-03T04:49:37.950Z,18.80
2022-08-03T04:52:08.448Z,18.90
2022-08-03T04:54:42.862Z,18.90
2022-08-03T04:57:22.921Z,18.70
2022-08-03T04:59:58.320Z,18.80
2022-08-03T05:02:31.688Z,18.70
2022-08-03T05:05:00.362Z,18.70
2022-08-03T05:07:35.396Z,18.90
2022-08-03T05:10:14.866Z,19.00
2022-08-03T05:12:45.978Z,19.00
2022-08-03T05:15:14.269Z,18.90
2022-08-03T05:17:42.951Z,18.90
2022-08-03T05:20:12.677Z,18.90
2022-08-03T05:22:40.819Z,19.10
2022-08-03T05:25:17.791Z,19.00
2022-08-03T05:27:48.871Z,19.10
2022-08-03T05:30:31.532Z,19.10
2022-08-03T05:33:03.047Z,19.20
2022-08-03T05:35:55.788Z,19.20
2022-08-03T05:38:24.146Z,19.20
2022-08-03T05:41:21.187Z,19.20
2022-08-03T05:43:46.701Z,19.30
2022-08-03T05:46:15.197Z,19.30
2022-08-03T05:48:44.027Z,19.30
2022-08-03T05:51:12.373Z,19.40
2022-08-03T05:53:41.157Z,19.40
2022-08-03T05:56:13.697Z,19.50
2022-08-03T05:58:44.215Z,19.50
2022-08-03T06:01:12.371Z,19.40
2022-08-03T06:03:40.479Z,19.40
2022-08-03T06:06:08.821Z,19.50
2022-08-03T06:08:36.925Z,19.60
2022-08-03T06:11:05.182Z,19.60
2022-08-03T06:13:34.834Z,19.60
2022-08-03T06:16:03.160Z,19.60
2022-08-03T06:18:31.326Z,19.70
2022-08-03T06:21:14.405Z,19.70
2022-08-03T06:23:52.851Z,19.70
2022-08-03T06:26:23.051Z,19.30
2022-08-03T06:28:54.181Z,19.20
2022-08-03T06:31:24.029Z,19.20
2022-08-03T06:34:35.242Z,19.30
2022-08-03T06:36:40.638Z,19.50
2022-08-03T06:39:08.763Z,19.60
2022-08-03T06:41:37.530Z,19.80
2022-08-03T06:44:07.817Z,19.80
2022-08-03T06:46:36.824Z,19.90
2022-08-03T06:49:05.031Z,20.10
2022-08-03T06:52:05.826Z,20.20
2022-08-03T06:54:22.515Z,20.40
2022-08-03T06:56:50.841Z,20.50
2022-08-03T07:00:10.364Z,20.70
2022-08-03T07:02:09.808Z,20.90
2022-08-03T07:04:37.874Z,21.00
2022-08-03T07:07:05.998Z,21.20
2022-08-03T07:09:34.747Z,21.20
2022-08-03T07:12:04.074Z,21.20
2022-08-03T07:14:33.530Z,21.30
2022-08-03T07:17:01.573Z,21.40
2022-08-03T07:19:32.723Z,21.50
2022-08-03T07:22:02.281Z,21.60
2022-08-03T07:24:32.527Z,21.80
2022-08-03T07:27:00.583Z,21.90
2022-08-03T07:29:28.655Z,22.00
2022-08-03T07:32:04.783Z,22.10
2022-08-03T07:34:33.526Z,22.20
2022-08-03T07:37:01.630Z,22.20
2022-08-03T07:39:29.667Z,22.20
2022-08-03T07:41:57.816Z,22.10
2022-08-03T07:44:25.871Z,22.00
2022-08-03T07:46:53.895Z,22.30
2022-08-03T07:49:23.356Z,22.40
2022-08-03T07:52:11.515Z,22.50
2022-08-03T07:54:39.713Z,22.70
2022-08-03T07:57:07.829Z,22.80
2022-08-03T08:00:01.845Z,22.70
2022-08-03T08:02:26.347Z,22.60
2022-08-03T08:04:55.751Z,22.80
2022-08-03T08:07:25.280Z,22.80
2022-08-03T08:09:53.353Z,23.00
2022-08-03T08:12:21.559Z,23.00
2022-08-03T08:14:49.787Z,23.20
2022-08-03T08:17:17.841Z,23.30
2022-08-03T08:19:51.225Z,23.10
2022-08-03T08:22:25.852Z,23.30
2022-08-03T08:24:58.425Z,23.30
2022-08-03T08:27:27.036Z,23.40
2022-08-03T08:29:58.063Z,23.50
2022-08-03T08:32:30.693Z,23.50
2022-08-03T08:34:58.748Z,23.60
2022-08-03T08:37:28.263Z,23.50
2022-08-03T08:39:57.484Z,23.60
2022-08-03T08:42:26.823Z,23.70
2022-08-03T08:44:55.896Z,23.60
2022-08-03T08:47:26.803Z,23.70
2022-08-03T08:50:09.190Z,23.80
2022-08-03T08:52:42.682Z,23.90
2022-08-03T08:55:14.427Z,24.00
2022-08-03T08:57:49.291Z,24.10
2022-08-03T09:00:18.534Z,24.20
2022-08-03T09:02:47.553Z,24.40
2022-08-03T09:05:17.288Z,24.40
2022-08-03T09:07:47.967Z,24.40
2022-08-03T09:10:19.725Z,24.50
2022-08-03T09:12:49.930Z,24.60
2022-08-03T09:15:20.123Z,24.40
2022-08-03T09:17:51.099Z,24.50
2022-08-03T09:20:20.933Z,24.40
2022-08-03T09:22:59.224Z,24.70
2022-08-03T09:25:34.471Z,24.60
2022-08-03T09:28:10.845Z,24.80
2022-08-03T09:30:41.174Z,25.10
2022-08-03T09:33:10.482Z,25.10
2022-08-03T09:35:58.145Z,25.20
2022-08-03T09:38:27.711Z,25.00
2022-08-03T09:40:59.827Z,24.90
2022-08-03T09:43:29.541Z,24.90
2022-08-03T09:46:04.474Z,24.80
2022-08-03T09:48:35.001Z,25.00
2022-08-03T09:51:14.257Z,25.00
2022-08-03T09:53:59.613Z,25.30
2022-08-03T09:56:40.188Z,25.30
2022-08-03T09:59:08.438Z,25.30
2022-08-03T10:01:37.460Z,25.30
2022-08-03T10:04:06.064Z,25.30
2022-08-03T10:06:34.192Z,25.40
2022-08-03T10:09:11.482Z,25.50
2022-08-03T10:11:42.045Z,25.50
2022-08-03T10:14:18.781Z,25.40
2022-08-03T10:16:48.111Z,25.40
2022-08-03T10:19:16.876Z,25.70
2022-08-03T10:21:50.520Z,26.00
2022-08-03T10:24:27.149Z,25.80
2022-08-03T10:27:00.905Z,25.70
2022-08-03T10:29:30.095Z,25.60
2022-08-03T10:32:02.661Z,25.60
2022-08-03T10:34:37.662Z,25.90
2022-08-03T10:37:12.433Z,25.90
2022-08-03T10:39:54.299Z,26.40
2022-08-03T10:42:27.544Z,26.40
2022-08-03T10:45:04.993Z,26.70
2022-08-03T10:47:36.153Z,26.30
2022-08-03T10:50:05.297Z,26.10
2022-08-03T10:52:39.508Z,26.20
2022-08-03T10:55:52.991Z,26.10
2022-08-03T10:58:53.373Z,26.20
2022-08-03T11:02:00.008Z,26.20
2022-08-03T11:04:29.794Z,26.40
2022-08-03T11:07:21.463Z,26.60
2022-08-03T11:09:51.170Z,26.60
2022-08-03T11:12:28.978Z,26.50
2022-08-03T11:15:00.712Z,26.50
2022-08-03T11:17:29.029Z,26.70
2022-08-03T11:19:58.484Z,27.20
2022-08-03T11:22:47.225Z,27.20
2022-08-03T11:25:53.630Z,27.40
2022-08-03T11:28:28.100Z,27.40
2022-08-03T11:30:56.247Z,27.50
2022-08-03T11:33:30.732Z,27.40
2022-08-03T11:36:03.212Z,27.40
2022-08-03T11:38:31.555Z,27.50
2022-08-03T11:41:02.625Z,27.40
2022-08-03T11:43:47.663Z,27.30
2022-08-03T11:46:29.473Z,27.40
2022-08-03T11:49:09.903Z,27.30
2022-08-03T11:51:40.315Z,26.80
2022-08-03T11:54:08.915Z,26.70
2022-08-03T11:56:46.677Z,26.70
2022-08-03T11:59:21.760Z,26.90
2022-08-03T12:01:50.627Z,27.50
2022-08-03T12:04:18.897Z,27.30
2022-08-03T12:07:00.473Z,27.70
2022-08-03T12:09:28.624Z,27.80
2022-08-03T12:12:00.168Z,28.10
2022-08-03T12:14:50.374Z,28.20
2022-08-03T12:17:19.503Z,28.30
2022-08-03T12:19:47.918Z,28.60
2022-08-03T12:22:17.110Z,28.40
2022-08-03T12:24:47.243Z,28.30
2022-08-03T12:27:25.449Z,28.10
2022-08-03T12:29:58.570Z,27.90
2022-08-03T12:32:27.797Z,28.30
2022-08-03T12:35:00.187Z,29.10
2022-08-03T12:37:28.838Z,29.60
2022-08-03T12:40:05.087Z,29.70
2022-08-03T12:42:35.753Z,29.90
2022-08-03T12:45:23.930Z,29.90
2022-08-03T12:47:53.701Z,29.90
2022-08-03T12:50:31.552Z,30.10
2022-08-03T12:53:00.423Z,30.30
2022-08-03T12:55:57.163Z,30.60
2022-08-03T12:58:34.344Z,30.50
2022-08-03T13:01:09.929Z,31.00
2022-08-03T13:03:45.754Z,30.80
2022-08-03T13:06:19.775Z,30.40
2022-08-03T13:08:48.398Z,30.80
2022-08-03T13:11:52.631Z,30.40
2022-08-03T13:14:16.667Z,30.70
2022-08-03T13:16:49.803Z,31.30
2022-08-03T13:19:17.919Z,31.90
2022-08-03T13:21:53.690Z,31.20
2022-08-03T13:24:33.394Z,30.50
2022-08-03T13:27:22.519Z,29.30
2022-08-03T13:29:50.522Z,29.00
2022-08-03T13:32:20.441Z,29.60
2022-08-03T13:34:48.616Z,30.20
2022-08-03T13:37:17.459Z,31.20
2022-08-03T13:39:57.422Z,30.40
2022-08-03T13:42:28.690Z,30.40
2022-08-03T13:44:56.775Z,30.40
2022-08-03T13:47:26.346Z,30.50
2022-08-03T13:50:01.151Z,30.30
2022-08-03T13:52:31.537Z,30.60
2022-08-03T13:54:59.952Z,31.50
2022-08-03T13:58:11.812Z,32.00
2022-08-03T14:00:27.725Z,32.30
2022-08-03T14:03:06.548Z,32.80
2022-08-03T14:05:38.829Z,33.00
2022-08-03T14:08:07.848Z,32.90
2022-08-03T14:10:37.670Z,32.80
2022-08-03T14:13:06.321Z,32.90
2022-08-03T14:15:37.462Z,32.30
2022-08-03T14:18:15.756Z,30.50
2022-08-03T14:20:49.005Z,30.70
2022-08-03T14:23:20.234Z,31.50
2022-08-03T14:25:52.038Z,32.30
2022-08-03T14:28:22.592Z,31.90
2022-08-03T14:30:51.798Z,31.10
2022-08-03T14:33:21.360Z,30.40
2022-08-03T14:35:50.141Z,31.20
2022-08-03T14:38:18.461Z,31.70
2022-08-03T14:40:46.752Z,32.40
2022-08-03T14:43:14.968Z,33.20
2022-08-03T14:45:43.074Z,33.80
2022-08-03T14:50:32.161Z,34.20
2022-08-03T14:51:01.861Z,32.70
2022-08-03T14:53:30.195Z,32.20
2022-08-03T14:55:58.361Z,31.10
2022-08-03T14:58:27.071Z,32.40
2022-08-03T15:00:56.312Z,32.80
2022-08-03T15:03:25.586Z,33.50
2022-08-03T15:05:54.727Z,34.90
2022-08-03T15:08:25.587Z,34.10
2022-08-03T15:10:53.992Z,34.20
2022-08-03T15:13:22.166Z,34.40
2022-08-03T15:15:51.797Z,36.40
2022-08-03T15:18:20.405Z,37.50
2022-08-03T15:20:49.533Z,38.40
2022-08-03T15:23:18.784Z,38.90
2022-08-03T15:26:32.398Z,36.90
2022-08-03T15:28:37.530Z,37.40
2022-08-03T15:31:06.758Z,37.50
2022-08-03T15:33:35.189Z,38.50
2022-08-03T15:36:03.875Z,38.60
2022-08-03T15:38:31.943Z,38.40
2022-08-03T15:41:01.366Z,38.40
2022-08-03T15:43:29.577Z,37.80
2022-08-03T15:46:27.827Z,37.90
2022-08-03T15:48:47.352Z,35.60
2022-08-03T15:51:15.939Z,36.70
2022-08-03T15:53:44.005Z,37.60
2022-08-03T15:56:18.230Z,36.90
2022-08-03T15:59:04.579Z,37.70
2022-08-03T16:01:35.140Z,37.60
2022-08-03T16:04:03.247Z,37.80
2022-08-03T16:06:35.361Z,38.20
2022-08-03T16:09:23.156Z,38.00
2022-08-03T16:11:56.422Z,36.90
2022-08-03T16:14:32.412Z,36.70
2022-08-03T16:17:04.267Z,35.20
2022-08-03T16:19:32.325Z,34.60
2022-08-03T16:22:01.578Z,33.40
2022-08-03T16:24:31.566Z,34.90
2022-08-03T16:27:01.010Z,35.80
2022-08-03T16:29:29.791Z,35.60
2022-08-03T16:31:57.915Z,35.90
2022-08-03T16:34:25.942Z,34.90
2022-08-03T16:36:54.663Z,34.60
2022-08-03T16:39:22.800Z,34.00
2022-08-03T16:41:54.455Z,34.30
2022-08-03T16:44:32.111Z,33.70
2022-08-03T16:47:00.666Z,33.90
2022-08-03T16:49:53.957Z,33.70
2022-08-03T16:52:17.829Z,33.50
2022-08-03T16:54:52.761Z,33.30
2022-08-03T16:57:29.978Z,33.10
2022-08-03T17:00:34.640Z,32.00
2022-08-03T17:03:04.343Z,32.00
2022-08-03T17:05:47.413Z,32.70
2022-08-03T17:08:16.174Z,32.20
2022-08-03T17:10:47.101Z,32.80
2022-08-03T17:13:22.101Z,32.80
2022-08-03T17:16:06.443Z,31.90
2022-08-03T17:18:38.841Z,31.70
2022-08-03T17:21:11.683Z,32.20
2022-08-03T17:23:45.364Z,31.60
2022-08-03T17:26:21.670Z,31.30
2022-08-03T17:28:58.227Z,30.70
2022-08-03T17:31:31.082Z,30.40
2022-08-03T17:34:07.006Z,30.20
2022-08-03T17:37:03.306Z,30.40
2022-08-03T17:39:48.501Z,30.30
2022-08-03T17:42:31.123Z,30.70
2022-08-03T17:47:57.143Z,30.40
2022-08-03T17:50:35.418Z,29.70
2022-08-03T17:53:14.435Z,30.00
2022-08-03T17:55:55.940Z,30.10
2022-08-03T17:58:41.532Z,30.20
2022-08-03T18:02:00.802Z,29.60
2022-08-03T18:04:30.208Z,28.90
2022-08-03T18:07:11.759Z,28.40
2022-08-03T18:10:03.613Z,28.60
2022-08-03T18:12:44.028Z,28.70
2022-08-03T18:15:20.956Z,28.60
2022-08-03T18:17:55.736Z,28.50
2022-08-03T18:20:41.241Z,27.80
2022-08-03T18:23:24.729Z,27.00
2022-08-03T18:25:58.100Z,27.10
2022-08-03T18:28:28.756Z,27.00
2022-08-03T18:30:57.199Z,26.90
2022-08-03T18:34:18.878Z,26.80
2022-08-03T18:36:21.983Z,26.50
2022-08-03T18:38:59.767Z,26.40
2022-08-03T18:41:33.706Z,26.00
2022-08-03T18:44:08.087Z,25.80
2022-08-03T18:46:48.503Z,25.60
2022-08-03T18:49:38.234Z,25.60
2022-08-03T18:52:15.831Z,25.30
2022-08-03T18:55:02.376Z,25.10
2022-08-03T18:57:46.441Z,25.00
2022-08-03T19:00:16.302Z,25.00
2022-08-03T19:02:50.357Z,25.00
2022-08-03T19:05:21.468Z,24.90
2022-08-03T19:07:59.826Z,24.80
2022-08-03T19:10:32.687Z,24.70
2022-08-03T19:13:11.561Z,24.50
2022-08-03T19:15:51.555Z,24.30
2022-08-03T19:18:22.512Z,24.20
2022-08-03T19:20:54.682Z,24.20
2022-08-03T19:23:26.346Z,24.00
2022-08-03T19:26:03.688Z,23.90
2022-08-03T19:28:34.466Z,23.80
2022-08-03T19:33:57.235Z,23.70
2022-08-03T19:36:28.640Z,23.60
2022-08-03T19:38:59.199Z,23.50
2022-08-03T19:41:42.253Z,23.40
2022-08-03T19:44:12.390Z,23.40
2022-08-03T19:46:56.517Z,23.40
2022-08-03T19:50:04.785Z,23.40
2022-08-03T19:52:20.924Z,23.30
2022-08-03T19:55:00.517Z,23.20
2022-08-03T19:57:30.387Z,23.10
2022-08-03T19:59:58.905Z,23.00
2022-08-03T20:02:35.353Z,23.10
2022-08-03T20:05:03.496Z,23.20
2022-08-03T20:07:33.028Z,23.00
2022-08-03T20:10:04.716Z,23.00
2022-08-03T20:12:39.030Z,22.90
2022-08-03T20:15:09.165Z,23.00
2022-08-03T20:17:55.275Z,22.80
2022-08-03T20:20:27.261Z,22.80
2022-08-03T20:22:58.077Z,22.70
2022-08-03T20:25:38.228Z,22.60
2022-08-03T20:28:14.278Z,22.50
2022-08-03T20:30:46.525Z,22.30
2022-08-03T20:33:18.306Z,22.30
2022-08-03T20:35:48.904Z,22.10
2022-08-03T20:38:18.704Z,21.90
2022-08-03T20:40:48.764Z,22.10
2022-08-03T20:43:20.094Z,22.20
2022-08-03T20:48:37.195Z,22.40
2022-08-03T20:53:59.524Z,22.20
2022-08-03T20:56:33.779Z,22.20
2022-08-03T20:59:03.653Z,22.30
2022-08-03T21:01:36.152Z,22.20
2022-08-03T21:04:06.934Z,22.30
2022-08-03T21:06:45.532Z,22.20
2022-08-03T21:09:33.453Z,22.10
2022-08-03T21:12:17.793Z,22.10
2022-08-03T21:13:04.166Z,30.70
2022-08-03T21:13:07.509Z,22.20
2022-08-03T21:13:10.183Z,23.80
2022-08-03T21:13:13.572Z,22.30
2022-08-03T21:14:52.770Z,22.10
2022-08-03T21:17:39.867Z,22.00
2022-08-03T21:20:10.762Z,21.80
2022-08-03T21:22:40.738Z,21.80
2022-08-03T21:25:10.241Z,21.80
2022-08-03T21:27:39.934Z,21.90
2022-08-03T21:30:10.826Z,21.60
2022-08-03T21:32:40.242Z,21.70
2022-08-03T21:35:11.338Z,21.50
2022-08-03T21:37:40.071Z,21.50
2022-08-03T21:40:10.776Z,21.60
2022-08-03T21:42:40.826Z,21.50
2022-08-03T21:45:16.599Z,21.10
2022-08-03T21:47:46.614Z,21.10
2022-08-03T21:50:15.061Z,21.20
2022-08-03T21:52:45.017Z,21.30
2022-08-03T21:55:20.598Z,21.30
2022-08-03T21:57:54.340Z,21.20
2022-08-03T22:00:24.025Z,21.00
2022-08-03T22:02:55.558Z,21.00
2022-08-03T22:05:42.361Z,20.80
2022-08-03T22:08:12.491Z,20.80
2022-08-03T22:10:40.846Z,20.70
2022-08-03T22:13:10.280Z,20.90
2022-08-03T22:15:38.390Z,20.90
2022-08-03T22:18:06.638Z,20.50
2022-08-03T22:20:34.925Z,20.60
2022-08-03T22:23:06.426Z,20.70
2022-08-03T22:25:37.047Z,20.80
2022-08-03T22:28:08.494Z,20.80
2022-08-03T22:30:38.464Z,20.60
2022-08-03T22:33:11.546Z,20.80
2022-08-03T22:35:47.640Z,20.80
2022-08-03T22:38:17.778Z,20.70
2022-08-03T22:40:48.262Z,20.60
2022-08-03T22:43:16.602Z,20.60
2022-08-03T22:46:09.320Z,20.50
2022-08-03T22:48:40.627Z,20.40
2022-08-03T22:51:09.581Z,20.40
2022-08-03T22:53:37.853Z,20.30
2022-08-03T22:56:07.576Z,20.40
2022-08-03T22:58:35.667Z,20.50
2022-08-03T23:01:08.326Z,20.40
2022-08-03T23:04:01.221Z,20.30
2022-08-03T23:06:30.848Z,20.30
2022-08-03T23:08:59.168Z,20.20
2022-08-03T23:11:28.262Z,20.20
2022-08-03T23:13:59.826Z,20.30
2022-08-03T23:16:29.974Z,20.30
2022-08-03T23:18:59.325Z,20.20
2022-08-03T23:21:53.567Z,20.30
2022-08-03T23:24:24.612Z,20.00
2022-08-03T23:26:58.726Z,19.90
2022-08-03T23:29:29.578Z,19.90
2022-08-03T23:31:59.636Z,19.90
2022-08-03T23:34:46.548Z,19.90
2022-08-03T23:37:15.402Z,20.00
2022-08-03T23:39:45.931Z,20.00
2022-08-03T23:42:16.214Z,20.00
2022-08-03T23:44:45.165Z,20.00
2022-08-03T23:47:15.046Z,20.00
2022-08-03T23:49:43.309Z,20.00
2022-08-03T23:52:20.167Z,20.00
2022-08-03T23:55:01.034Z,20.10
2022-08-03T23:57:34.790Z,20.00
